100LL.CA
Aviation Fuel Pricing for Canadians
Please upgrade your browser - Tested with IE9, FireFox, Chrome, Safari

Fuel Airports Other Help
Prices Economy Info List METAR/TAF Kneeboard Help

Reference Airport: WINNIPEG/JAMES ARMSTRONG RICHARDSON INTL, MB
N 49 54 35.6431  W 097 14 23.6356
Provinces to show:

CYWG WINNIPEG/JAMES ARMSTRONG RICHARDSON INTL, MB
WEATHER
METARCYWG 221400Z 09004KT 15SM BKN110 BKN260 21/13 A2993 RMK AC5CS2 SLP138 DENSITY ALT 1700FT
TAFTAF CYWG 221140Z 2212/2312 09005KT P6SM FEW060 BKN120 FM222000 16012KT P6SM BKN060 BKN120 TEMPO 2220/2223 P6SM VCTS BKN060CB OVC120 FM222300 19010G20KT P6SM -SHRA BKN040 PROB30 2223/2303 VRB20G30KT 5SM TSRA BKN020CB FM230300 29008KT P6SM -SHRA VCTS BKN008 OVC030CB FM230900 30010KT P6SM BKN008 RMK NXT FCST BY 221800Z
OTHER SITES

FlightAware

FltPlan

Google Maps

SkyVector
FUEL
FBO 100LL
member
100LL
public
JETA MOGAS
Kelly Western (2019-01-23)2.2401.490
Fast Air (2022-05-06)2.8102.540
Canada Flight Supplement - CYWG
(opens in new tab/window)


Please Send Updates!

Desktop Version ]  [ Mobile Version ]  [ Disclaimer ]